Time;durP1;ratioP1;P1;durP2;ratioP2;P2;SDS_P1;SDS_P2;PMS_P1;PMS_P2;Temp;Humidity;BMP_temperature;BMP_pressure;BME280_temperature;BME280_humidity;BME280_pressure;Samples;Min_cycle;Max_cycle;Signal;HPM_P1;HPM_P2
2022/01/29 00:00:26;;;;;;;43.20;9.60;;;3.90;34.30;;;;;;5046167;28;20458;-62
2022/01/29 00:02:53;;;;;;;40.60;8.13;;;3.90;34.40;;;;;;5045861;28;20486;-63
2022/01/29 00:05:20;;;;;;;41.70;9.57;;;3.80;34.30;;;;;;5046339;28;20473;-62
2022/01/29 00:07:47;;;;;;;40.00;8.10;;;3.80;34.40;;;;;;5043821;28;20464;-63
2022/01/29 00:10:15;;;;;;;43.93;10.10;;;3.80;34.40;;;;;;5046085;28;21066;-62
2022/01/29 00:12:43;;;;;;;41.50;9.47;;;3.70;34.50;;;;;;5047203;28;20564;-63
2022/01/29 00:15:12;;;;;;;43.33;9.47;;;3.70;34.50;;;;;;5045377;28;20462;-62
2022/01/29 00:17:40;;;;;;;44.97;9.13;;;3.70;34.60;;;;;;5046994;28;20660;-63
2022/01/29 00:20:08;;;;;;;42.80;9.80;;;3.60;34.50;;;;;;5046287;28;20461;-63
2022/01/29 00:22:35;;;;;;;42.20;8.70;;;3.60;34.70;;;;;;5046907;28;20474;-62
2022/01/29 00:25:02;;;;;;;42.30;9.33;;;3.60;34.70;;;;;;5044975;28;20466;-62
2022/01/29 00:27:33;;;;;;;40.00;7.83;;;3.60;34.80;;;;;;5050743;28;20944;-62
2022/01/29 00:30:03;;;;;;;42.13;8.30;;;3.60;35.00;;;;;;5049507;28;20478;-63
2022/01/29 00:32:30;;;;;;;40.43;8.63;;;3.50;35.00;;;;;;5048666;28;20482;-62
2022/01/29 00:34:58;;;;;;;45.40;8.27;;;3.50;35.00;;;;;;5049727;28;20457;-61
2022/01/29 00:37:25;;;;;;;42.30;8.10;;;3.50;35.20;;;;;;5046582;28;20940;-62
2022/01/29 00:39:52;;;;;;;43.87;9.20;;;3.50;35.10;;;;;;5047411;28;20462;-62
2022/01/29 00:42:19;;;;;;;39.87;8.40;;;3.50;35.20;;;;;;5047371;28;20487;-62
2022/01/29 00:44:49;;;;;;;42.47;8.97;;;3.50;35.30;;;;;;5048966;28;20469;-62
2022/01/29 00:47:15;;;;;;;44.73;8.60;;;3.60;35.40;;;;;;5046653;28;20814;-62
2022/01/29 00:49:43;;;;;;;45.23;8.40;;;3.60;35.40;;;;;;5049803;28;20503;-61
2022/01/29 00:52:11;;;;;;;42.63;8.20;;;3.60;35.30;;;;;;5049766;28;20485;-63
2022/01/29 00:54:39;;;;;;;40.90;7.70;;;3.60;35.40;;;;;;5048561;28;20462;-62
2022/01/29 00:57:06;;;;;;;39.97;9.37;;;3.60;35.40;;;;;;5047924;28;20473;-63
2022/01/29 00:59:33;;;;;;;40.93;9.00;;;3.60;35.30;;;;;;5047982;28;20466;-63
2022/01/29 01:02:02;;;;;;;42.33;8.53;;;3.60;35.40;;;;;;5049573;28;20470;-63
2022/01/29 01:04:29;;;;;;;40.30;8.07;;;3.50;35.30;;;;;;5048051;28;20470;-63
2022/01/29 01:06:56;;;;;;;40.13;7.60;;;3.50;35.30;;;;;;5042694;28;20463;-63
2022/01/29 01:09:24;;;;;;;40.70;8.17;;;3.50;35.30;;;;;;5048688;28;20482;-62
2022/01/29 01:11:51;;;;;;;42.90;9.23;;;3.50;35.30;;;;;;5048662;28;20483;-63
2022/01/29 01:14:18;;;;;;;39.10;7.13;;;3.50;35.30;;;;;;5047466;28;20473;-62
2022/01/29 01:16:44;;;;;;;40.20;7.77;;;3.50;35.30;;;;;;5049399;28;20450;-62
2022/01/29 01:19:11;;;;;;;39.60;8.37;;;3.50;35.30;;;;;;5048176;28;20457;-63
2022/01/29 01:21:38;;;;;;;39.53;7.67;;;3.60;35.30;;;;;;5042918;28;20461;-63
2022/01/29 01:24:05;;;;;;;41.73;8.40;;;3.60;35.30;;;;;;5049437;28;20458;-63
2022/01/29 01:26:33;;;;;;;40.70;8.13;;;3.60;35.20;;;;;;5049180;28;20481;-63
2022/01/29 01:29:00;;;;;;;40.53;7.90;;;3.60;35.30;;;;;;5048571;28;20474;-63
2022/01/29 01:31:27;;;;;;;42.60;7.33;;;3.60;35.20;;;;;;5048071;28;20490;-61
2022/01/29 01:33:54;;;;;;;39.70;7.47;;;3.60;35.20;;;;;;5049326;28;20831;-62
2022/01/29 01:36:24;;;;;;;41.23;8.43;;;3.60;35.30;;;;;;5047844;28;20898;-63
2022/01/29 01:38:54;;;;;;;41.40;8.37;;;3.60;35.30;;;;;;5049382;28;20454;-62
2022/01/29 01:41:24;;;;;;;41.30;7.20;;;3.60;35.30;;;;;;5048875;28;20580;-62
2022/01/29 01:43:59;;;;;;;40.17;8.63;;;3.50;35.20;;;;;;5048647;28;20454;-63
2022/01/29 01:46:28;;;;;;;40.70;8.43;;;3.60;35.40;;;;;;5049499;28;20450;-63
2022/01/29 01:48:55;;;;;;;37.47;6.87;;;3.60;35.40;;;;;;5049236;28;20540;-63
2022/01/29 01:51:22;;;;;;;40.67;7.00;;;3.60;35.20;;;;;;5048768;28;20466;-62
2022/01/29 01:53:49;;;;;;;41.00;7.47;;;3.50;35.30;;;;;;5049184;28;20485;-62
2022/01/29 01:56:15;;;;;;;40.50;7.53;;;3.60;35.40;;;;;;5048340;28;20545;-62
2022/01/29 01:58:42;;;;;;;39.70;7.00;;;3.50;35.40;;;;;;5049142;28;20450;-62
2022/01/29 02:01:10;;;;;;;39.00;6.60;;;3.60;35.40;;;;;;5046879;28;20836;-62
2022/01/29 02:03:37;;;;;;;43.03;7.27;;;3.50;35.50;;;;;;5047643;28;20489;-62
2022/01/29 02:06:04;;;;;;;42.87;8.43;;;3.60;35.30;;;;;;5048341;28;20458;-62
2022/01/29 02:08:31;;;;;;;39.87;7.67;;;3.50;35.50;;;;;;5046994;28;22625;-62
2022/01/29 02:11:02;;;;;;;41.60;8.10;;;3.50;35.50;;;;;;5046982;28;20863;-62
2022/01/29 02:13:29;;;;;;;41.67;8.13;;;3.50;35.60;;;;;;5039430;28;20564;-63
2022/01/29 02:15:57;;;;;;;42.40;8.17;;;3.50;35.70;;;;;;5048642;28;21180;-62
2022/01/29 02:18:25;;;;;;;39.87;7.97;;;3.50;35.70;;;;;;5048121;28;20494;-62
2022/01/29 02:20:53;;;;;;;39.80;7.40;;;3.50;35.70;;;;;;5049118;28;21182;-62
2022/01/29 02:23:21;;;;;;;41.40;7.73;;;3.50;35.70;;;;;;5048112;28;20911;-62
2022/01/29 02:25:49;;;;;;;41.47;7.33;;;3.50;35.80;;;;;;5048260;28;20463;-62
2022/01/29 02:28:19;;;;;;;39.33;7.70;;;3.50;35.80;;;;;;5047397;28;20454;-63
2022/01/29 02:30:47;;;;;;;44.17;7.90;;;3.50;35.90;;;;;;5046537;28;21078;-62
2022/01/29 02:33:16;;;;;;;40.00;7.77;;;3.50;36.10;;;;;;5048550;28;20482;-63
2022/01/29 02:35:47;;;;;;;44.43;7.53;;;3.50;35.90;;;;;;5048849;28;20529;-61
2022/01/29 02:38:15;;;;;;;41.50;8.37;;;3.50;36.00;;;;;;5046105;28;20462;-61
2022/01/29 02:40:46;;;;;;;41.33;8.40;;;3.50;35.80;;;;;;5047499;28;20462;-63
2022/01/29 02:43:15;;;;;;;40.30;8.20;;;3.50;35.90;;;;;;5048109;28;20482;-63
2022/01/29 02:45:43;;;;;;;40.60;7.80;;;3.50;35.90;;;;;;5046366;28;20549;-61
2022/01/29 02:48:10;;;;;;;42.17;9.20;;;3.50;35.90;;;;;;5047020;28;20466;-62
2022/01/29 02:50:38;;;;;;;39.70;7.40;;;3.50;35.90;;;;;;5048408;28;21213;-64
2022/01/29 02:53:05;;;;;;;38.00;6.67;;;3.50;35.90;;;;;;5047832;28;20497;-63
2022/01/29 02:55:32;;;;;;;41.77;7.30;;;3.50;35.90;;;;;;5047052;28;20468;-62
2022/01/29 02:58:00;;;;;;;41.60;7.30;;;3.50;35.90;;;;;;5047059;28;21221;-62
2022/01/29 03:00:27;;;;;;;42.13;8.47;;;3.50;36.00;;;;;;5045680;28;20461;-64
2022/01/29 03:02:54;;;;;;;37.87;7.00;;;3.50;36.00;;;;;;5048447;28;20505;-62
2022/01/29 03:05:21;;;;;;;42.73;7.63;;;3.50;35.90;;;;;;5048006;28;21150;-62
2022/01/29 03:07:48;;;;;;;39.20;6.57;;;3.50;35.90;;;;;;5046785;28;20469;-62
2022/01/29 03:10:15;;;;;;;42.17;7.60;;;3.50;35.80;;;;;;5046730;28;20489;-62
2022/01/29 03:12:42;;;;;;;40.50;7.70;;;3.50;35.90;;;;;;5048050;28;20478;-62
2022/01/29 03:15:13;;;;;;;38.07;6.33;;;3.60;35.80;;;;;;5046863;28;20549;-62
2022/01/29 03:17:40;;;;;;;41.27;7.70;;;3.60;35.80;;;;;;5047449;28;20470;-60
2022/01/29 03:20:08;;;;;;;40.43;7.17;;;3.50;35.70;;;;;;5046528;28;20453;-62
2022/01/29 03:22:34;;;;;;;37.67;6.60;;;3.50;35.60;;;;;;5047444;28;20481;-62
2022/01/29 03:25:02;;;;;;;41.63;6.70;;;3.40;35.60;;;;;;5047465;28;20468;-63
2022/01/29 03:27:28;;;;;;;39.27;6.47;;;3.50;35.60;;;;;;5045733;28;20462;-63
2022/01/29 03:29:55;;;;;;;39.00;6.40;;;3.50;35.60;;;;;;5046771;28;20478;-62
2022/01/29 03:32:23;;;;;;;38.27;5.93;;;3.50;35.60;;;;;;5043887;28;20527;-62
2022/01/29 03:34:50;;;;;;;38.00;6.40;;;3.50;35.50;;;;;;5047362;28;20484;-63
2022/01/29 03:37:17;;;;;;;39.57;6.30;;;3.50;35.50;;;;;;5045979;28;20466;-63
2022/01/29 03:39:45;;;;;;;37.53;5.97;;;3.60;35.30;;;;;;5047094;28;20457;-62
2022/01/29 03:42:13;;;;;;;38.23;6.37;;;3.60;35.00;;;;;;5045116;28;21069;-61
2022/01/29 03:44:40;;;;;;;38.33;5.80;;;3.60;35.00;;;;;;5046996;28;20687;-65
2022/01/29 03:47:07;;;;;;;37.73;6.60;;;3.60;35.00;;;;;;5047479;28;20462;-64
2022/01/29 03:49:35;;;;;;;40.83;6.93;;;3.60;34.80;;;;;;5048075;28;20481;-63
2022/01/29 03:52:02;;;;;;;39.90;6.47;;;3.60;34.90;;;;;;5046538;28;20489;-62
2022/01/29 03:54:29;;;;;;;41.37;6.50;;;3.60;34.90;;;;;;5047406;28;20462;-63
2022/01/29 03:56:56;;;;;;;37.40;6.20;;;3.60;34.70;;;;;;5046089;28;20838;-63
2022/01/29 03:59:22;;;;;;;37.80;6.07;;;3.60;34.70;;;;;;5046205;28;20982;-63
2022/01/29 04:01:49;;;;;;;38.30;5.97;;;3.60;34.60;;;;;;5049387;28;20470;-62
2022/01/29 04:04:16;;;;;;;38.70;6.03;;;3.60;34.70;;;;;;5047899;28;20466;-62
2022/01/29 04:06:44;;;;;;;38.40;6.43;;;3.60;34.60;;;;;;5049289;28;20465;-64
2022/01/29 04:09:12;;;;;;;38.53;7.00;;;3.60;34.70;;;;;;5049093;28;20457;-62
2022/01/29 04:11:39;;;;;;;41.73;6.50;;;3.60;34.70;;;;;;5048577;28;20496;-63
2022/01/29 04:14:13;;;;;;;38.17;6.60;;;3.60;34.50;;;;;;5049301;28;20468;-63
2022/01/29 04:16:40;;;;;;;40.10;6.50;;;3.60;34.40;;;;;;5050756;28;20481;-63
2022/01/29 04:19:07;;;;;;;38.40;5.80;;;3.60;34.70;;;;;;5051540;28;20462;-64
2022/01/29 04:21:34;;;;;;;38.13;5.57;;;3.60;34.60;;;;;;5050724;28;20476;-63
2022/01/29 04:24:02;;;;;;;39.23;5.30;;;3.70;34.60;;;;;;5049023;28;20458;-63
2022/01/29 04:26:33;;;;;;;40.57;6.47;;;3.70;35.20;;;;;;5050125;28;20461;-62
2022/01/29 04:29:02;;;;;;;41.20;6.47;;;3.70;34.70;;;;;;5049634;28;20493;-62
2022/01/29 04:31:36;;;;;;;38.57;6.43;;;3.70;34.50;;;;;;5041674;28;20561;-64
2022/01/29 04:34:03;;;;;;;37.43;6.03;;;3.60;34.50;;;;;;5048668;28;21437;-62
2022/01/29 04:36:30;;;;;;;41.20;5.80;;;3.70;34.50;;;;;;5051149;28;20458;-63
2022/01/29 04:38:57;;;;;;;38.20;5.57;;;3.70;34.40;;;;;;5051727;28;20458;-62
2022/01/29 04:41:25;;;;;;;41.00;6.03;;;3.70;34.40;;;;;;5050452;28;20881;-62
2022/01/29 04:43:52;;;;;;;37.43;5.50;;;3.70;34.60;;;;;;5053292;28;20872;-63
2022/01/29 04:46:19;;;;;;;36.00;5.20;;;3.70;34.50;;;;;;5051086;28;20465;-62
2022/01/29 04:48:46;;;;;;;39.37;6.27;;;3.70;34.50;;;;;;5050814;28;20473;-62
2022/01/29 04:51:12;;;;;;;38.67;6.73;;;3.70;34.80;;;;;;5050192;28;21174;-64
2022/01/29 04:53:40;;;;;;;37.00;5.90;;;3.70;34.70;;;;;;5057658;23;20494;-69
2022/01/29 04:56:07;;;;;;;41.97;6.53;;;3.70;34.60;;;;;;5050684;28;20843;-68
2022/01/29 04:58:35;;;;;;;37.97;5.50;;;3.70;34.60;;;;;;5050592;28;20492;-68
2022/01/29 05:01:03;;;;;;;40.10;5.30;;;3.70;34.70;;;;;;5049624;28;20497;-69
2022/01/29 05:03:30;;;;;;;41.80;5.20;;;3.70;34.60;;;;;;5050234;28;20462;-68
2022/01/29 05:05:58;;;;;;;39.10;6.00;;;3.70;34.50;;;;;;5049345;28;20794;-68
2022/01/29 05:08:25;;;;;;;38.23;5.70;;;3.70;34.20;;;;;;5048541;28;20462;-68
2022/01/29 05:10:52;;;;;;;43.43;6.90;;;3.60;33.90;;;;;;5048980;28;20790;-68
2022/01/29 05:13:23;;;;;;;37.30;6.40;;;3.60;34.10;;;;;;5050150;28;20465;-68
2022/01/29 05:16:05;;;;;;;37.30;5.30;;;3.60;34.40;;;;;;5050054;28;20462;-68
2022/01/29 05:26:53;;;;;;;39.83;6.53;;;3.60;34.30;;;;;;5049922;28;20495;-69
2022/01/29 05:29:20;;;;;;;38.60;6.47;;;3.60;34.30;;;;;;5049443;28;20485;-68
2022/01/29 05:31:51;;;;;;;37.53;5.50;;;3.60;34.50;;;;;;5049258;28;20846;-69
2022/01/29 05:34:18;;;;;;;39.00;5.77;;;3.60;34.60;;;;;;5049781;28;21026;-69
2022/01/29 05:36:45;;;;;;;39.20;5.60;;;3.60;34.80;;;;;;5049968;28;20454;-70
2022/01/29 05:39:12;;;;;;;37.13;5.93;;;3.60;34.80;;;;;;5050020;28;20481;-68
2022/01/29 05:41:39;;;;;;;36.70;5.90;;;3.60;34.90;;;;;;5049102;28;20458;-69
2022/01/29 05:44:06;;;;;;;38.53;5.73;;;3.70;35.00;;;;;;5049968;28;20469;-68
2022/01/29 05:46:33;;;;;;;37.57;5.20;;;3.70;35.00;;;;;;5049571;28;20458;-69
2022/01/29 05:49:01;;;;;;;37.27;5.37;;;3.70;35.00;;;;;;5049357;28;20486;-68
2022/01/29 05:51:30;;;;;;;39.23;6.90;;;3.70;34.90;;;;;;5049038;28;20514;-68
2022/01/29 05:53:57;;;;;;;42.23;6.27;;;3.70;35.10;;;;;;5036353;28;20517;-68
2022/01/29 05:56:24;;;;;;;39.27;6.33;;;3.70;35.00;;;;;;5033069;28;20474;-68
2022/01/29 05:58:51;;;;;;;38.23;6.03;;;3.70;35.00;;;;;;5038030;28;20486;-68
2022/01/29 06:01:18;;;;;;;41.53;6.43;;;3.70;35.20;;;;;;5031440;28;20470;-69
2022/01/29 06:03:45;;;;;;;40.53;6.10;;;3.70;35.20;;;;;;5031275;28;20474;-69
2022/01/29 06:06:13;;;;;;;42.40;6.90;;;3.70;35.10;;;;;;5029374;28;20466;-69
2022/01/29 06:08:40;;;;;;;37.40;6.37;;;3.70;35.30;;;;;;5029119;28;20489;-68
2022/01/29 06:11:07;;;;;;;40.50;6.43;;;3.70;35.40;;;;;;5028305;28;20852;-69
2022/01/29 06:13:34;;;;;;;38.50;6.30;;;3.80;35.10;;;;;;5028585;28;20466;-68
2022/01/29 06:16:02;;;;;;;38.70;7.07;;;3.80;35.00;;;;;;5030128;28;20970;-69
2022/01/29 06:18:29;;;;;;;38.80;6.50;;;3.80;35.20;;;;;;5030866;28;20999;-69
2022/01/29 06:21:03;;;;;;;38.60;6.13;;;3.80;34.90;;;;;;5036342;28;21274;-69
2022/01/29 06:23:33;;;;;;;37.43;6.30;;;3.80;34.70;;;;;;5033021;28;20459;-69
2022/01/29 06:26:02;;;;;;;37.50;7.10;;;3.80;34.70;;;;;;5031578;28;20466;-68
2022/01/29 06:28:29;;;;;;;38.90;6.70;;;3.90;34.70;;;;;;5038962;28;20455;-68
2022/01/29 06:30:56;;;;;;;41.93;6.90;;;3.90;34.90;;;;;;5048033;28;20470;-69
2022/01/29 06:33:23;;;;;;;42.67;7.13;;;3.90;34.90;;;;;;5032183;28;20461;-69
2022/01/29 06:35:50;;;;;;;40.57;6.23;;;3.80;34.80;;;;;;5029062;28;20454;-69
2022/01/29 06:38:17;;;;;;;39.27;7.10;;;3.90;34.90;;;;;;5028763;28;20829;-68
2022/01/29 06:40:46;;;;;;;41.00;7.80;;;3.80;35.00;;;;;;5028103;28;20466;-69
2022/01/29 06:43:13;;;;;;;39.90;6.63;;;3.90;35.10;;;;;;5028864;28;20553;-69
2022/01/29 06:46:13;;;;;;;41.47;7.47;;;3.90;35.00;;;;;;5028271;28;20463;-69
2022/01/29 06:48:40;;;;;;;43.13;7.40;;;3.90;34.90;;;;;;5027980;28;20489;-69
2022/01/29 06:51:07;;;;;;;42.23;8.80;;;3.90;35.00;;;;;;5028396;28;20482;-68
2022/01/29 06:53:34;;;;;;;40.00;8.13;;;3.90;35.10;;;;;;5028976;28;20859;-69
2022/01/29 06:56:02;;;;;;;42.17;8.00;;;3.90;35.30;;;;;;5028549;28;20455;-69
2022/01/29 06:58:29;;;;;;;40.00;7.17;;;3.90;35.20;;;;;;5028496;28;20812;-68
2022/01/29 07:00:55;;;;;;;40.03;7.70;;;3.90;35.30;;;;;;5027507;28;20475;-69
2022/01/29 07:03:22;;;;;;;40.67;7.30;;;3.90;35.40;;;;;;5028023;28;20465;-60
2022/01/29 07:05:49;;;;;;;43.83;8.40;;;3.90;35.80;;;;;;5027872;28;20463;-60
2022/01/29 07:08:16;;;;;;;42.00;8.57;;;4.00;35.70;;;;;;5037970;28;20544;-60
2022/01/29 07:10:44;;;;;;;43.30;8.03;;;3.90;35.80;;;;;;5046362;28;20483;-61
2022/01/29 07:13:12;;;;;;;40.30;8.37;;;4.00;35.80;;;;;;5045344;28;21041;-61
2022/01/29 07:15:39;;;;;;;40.83;8.60;;;4.00;35.60;;;;;;5046293;28;20462;-61
2022/01/29 07:18:06;;;;;;;42.57;9.57;;;4.00;35.60;;;;;;5042730;28;20469;-61
2022/01/29 07:20:33;;;;;;;45.20;10.03;;;4.00;35.60;;;;;;5044357;28;20478;-60
2022/01/29 07:23:00;;;;;;;43.23;9.97;;;4.00;35.80;;;;;;5045764;28;20469;-61
2022/01/29 07:25:27;;;;;;;42.13;9.17;;;4.00;35.90;;;;;;5046175;28;20450;-69
2022/01/29 07:27:54;;;;;;;46.80;10.80;;;4.00;35.90;;;;;;5043077;28;20459;-69
2022/01/29 07:30:22;;;;;;;43.30;10.47;;;4.00;35.90;;;;;;5045981;28;21025;-70
2022/01/29 07:32:48;;;;;;;41.37;9.40;;;4.10;36.00;;;;;;5047239;28;20450;-69
2022/01/29 07:35:15;;;;;;;44.40;10.33;;;4.10;36.00;;;;;;5047663;28;20468;-69
2022/01/29 07:37:42;;;;;;;46.20;10.10;;;4.10;36.50;;;;;;5052296;28;20454;-69
2022/01/29 07:40:10;;;;;;;44.77;11.20;;;4.10;36.00;;;;;;5051458;28;20477;-70
2022/01/29 07:42:40;;;;;;;45.80;11.37;;;4.10;35.80;;;;;;5048743;28;20462;-69
2022/01/29 07:45:07;;;;;;;48.27;12.90;;;4.10;35.90;;;;;;5051334;28;20446;-69
2022/01/29 07:47:36;;;;;;;53.40;10.80;;;4.10;36.10;;;;;;5049135;28;20861;-70
2022/01/29 07:50:03;;;;;;;44.17;10.60;;;4.20;36.00;;;;;;5048557;28;20481;-69
2022/01/29 07:52:31;;;;;;;48.87;12.40;;;4.20;35.90;;;;;;5051481;28;20481;-69
2022/01/29 07:54:58;;;;;;;46.60;12.67;;;4.30;36.00;;;;;;5053604;28;20553;-68
2022/01/29 07:57:24;;;;;;;46.20;12.23;;;4.30;35.80;;;;;;5051974;28;20457;-69
2022/01/29 07:59:51;;;;;;;47.90;11.50;;;4.30;35.80;;;;;;5048320;28;20485;-69
2022/01/29 08:02:18;;;;;;;45.20;11.40;;;4.30;35.80;;;;;;5044920;28;20475;-69
2022/01/29 08:04:46;;;;;;;49.10;13.60;;;4.30;36.10;;;;;;5051517;28;20458;-70
2022/01/29 08:07:13;;;;;;;48.77;13.20;;;4.30;35.90;;;;;;5053190;28;20457;-69
2022/01/29 08:09:40;;;;;;;49.77;13.40;;;4.30;36.00;;;;;;5053216;28;20478;-70
2022/01/29 08:12:07;;;;;;;47.97;12.80;;;4.30;36.10;;;;;;5052280;28;20485;-69
2022/01/29 08:14:34;;;;;;;48.87;13.07;;;4.30;36.20;;;;;;5037320;28;20553;-69
2022/01/29 08:17:01;;;;;;;49.63;14.37;;;4.30;36.30;;;;;;5053533;28;20480;-69
2022/01/29 08:19:28;;;;;;;50.37;14.17;;;4.30;36.40;;;;;;5043951;28;20485;-70
2022/01/29 08:21:56;;;;;;;53.43;15.03;;;4.30;36.50;;;;;;5055006;28;20461;-69
2022/01/29 08:24:23;;;;;;;51.47;13.63;;;4.30;36.40;;;;;;5054703;28;20943;-69
2022/01/29 08:26:49;;;;;;;52.93;16.20;;;4.40;36.50;;;;;;5043653;28;20458;-69
2022/01/29 08:29:16;;;;;;;53.07;14.83;;;4.40;36.40;;;;;;5053582;28;21197;-70
2022/01/29 08:31:43;;;;;;;50.90;15.40;;;4.50;36.20;;;;;;5041173;28;20466;-69
2022/01/29 08:34:10;;;;;;;50.63;13.83;;;4.50;36.00;;;;;;5053812;28;20995;-69
2022/01/29 08:36:37;;;;;;;56.90;15.97;;;4.50;36.00;;;;;;5054272;28;20629;-69
2022/01/29 08:39:05;;;;;;;54.57;15.00;;;4.50;35.90;;;;;;5054389;28;20473;-69
2022/01/29 08:41:32;;;;;;;55.57;13.73;;;4.60;36.00;;;;;;5053353;28;20477;-70
2022/01/29 08:43:58;;;;;;;53.67;15.97;;;4.60;35.90;;;;;;5037721;28;20471;-69
2022/01/29 08:46:25;;;;;;;50.90;14.47;;;4.60;35.70;;;;;;5032111;28;20469;-69
2022/01/29 08:48:52;;;;;;;52.40;15.70;;;4.60;36.40;;;;;;5049391;28;20493;-69
2022/01/29 08:51:19;;;;;;;51.30;15.10;;;4.60;35.70;;;;;;5049809;28;20484;-69
2022/01/29 08:53:46;;;;;;;52.70;16.60;;;4.60;35.70;;;;;;5050311;28;20460;-69
2022/01/29 08:56:15;;;;;;;52.47;15.23;;;4.60;35.60;;;;;;5049327;28;20484;-69
2022/01/29 08:58:42;;;;;;;53.00;16.57;;;4.60;35.90;;;;;;5050223;28;20474;-70
2022/01/29 09:01:09;;;;;;;52.93;15.60;;;4.50;36.10;;;;;;5048317;28;20489;-69
2022/01/29 09:03:37;;;;;;;51.87;15.10;;;4.60;35.90;;;;;;5049864;28;20462;-72
2022/01/29 09:06:04;;;;;;;52.27;14.60;;;4.60;35.90;;;;;;5050033;28;20458;-71
2022/01/29 09:08:31;;;;;;;54.70;15.50;;;4.60;35.70;;;;;;5043698;28;20481;-71
2022/01/29 09:10:59;;;;;;;48.77;14.70;;;4.60;35.60;;;;;;5046315;28;20478;-71
2022/01/29 09:13:28;;;;;;;50.23;14.10;;;4.60;35.70;;;;;;5049716;28;20541;-71
2022/01/29 09:15:56;;;;;;;54.50;15.20;;;4.60;35.70;;;;;;5050224;28;20458;-69
2022/01/29 09:18:23;;;;;;;52.93;15.90;;;4.60;35.60;;;;;;5048104;28;20469;-71
2022/01/29 09:20:50;;;;;;;49.37;14.67;;;4.60;35.50;;;;;;5049512;28;20454;-71
2022/01/29 09:23:17;;;;;;;50.97;13.60;;;4.70;37.10;;;;;;5049776;28;20461;-72
2022/01/29 09:25:44;;;;;;;53.00;14.60;;;4.80;35.50;;;;;;5050472;28;20458;-71
2022/01/29 09:28:13;;;;;;;50.70;13.97;;;4.80;34.90;;;;;;5049356;28;20464;-71
2022/01/29 09:30:42;;;;;;;50.37;15.90;;;4.80;34.80;;;;;;5049049;28;20656;-71
2022/01/29 09:33:10;;;;;;;48.60;13.57;;;4.80;34.70;;;;;;5049920;28;20462;-71
2022/01/29 09:35:38;;;;;;;51.50;14.70;;;4.80;34.70;;;;;;5049686;28;20470;-71
2022/01/29 09:38:05;;;;;;;50.20;14.30;;;4.80;34.70;;;;;;5048461;28;20483;-69
2022/01/29 09:40:32;;;;;;;58.77;13.97;;;4.80;34.50;;;;;;5049477;28;20831;-71
2022/01/29 09:43:01;;;;;;;51.20;13.50;;;4.70;34.80;;;;;;5051552;28;20480;-72
2022/01/29 09:45:28;;;;;;;51.57;13.80;;;4.80;34.50;;;;;;5050960;28;20498;-70
2022/01/29 09:48:01;;;;;;;44.97;11.77;;;4.70;34.30;;;;;;5051368;28;20832;-71
2022/01/29 09:50:29;;;;;;;50.37;13.60;;;4.80;34.40;;;;;;5050555;28;20812;-70
2022/01/29 09:52:56;;;;;;;49.83;13.40;;;4.80;33.80;;;;;;5051140;28;20489;-71
2022/01/29 09:55:23;;;;;;;48.30;13.23;;;4.80;34.00;;;;;;5051342;28;20461;-70
2022/01/29 09:57:50;;;;;;;50.57;13.80;;;4.80;33.90;;;;;;5050204;28;20480;-71
2022/01/29 10:00:18;;;;;;;48.37;13.50;;;4.90;34.00;;;;;;5050088;28;20505;-68
2022/01/29 10:02:45;;;;;;;52.00;14.33;;;5.00;33.60;;;;;;5050853;28;20461;-70
2022/01/29 10:05:13;;;;;;;46.80;13.73;;;5.10;33.70;;;;;;5050913;28;20462;-67
2022/01/29 10:07:40;;;;;;;49.40;13.50;;;5.20;33.00;;;;;;5051292;28;20556;-68
2022/01/29 10:10:18;;;;;;;45.27;12.83;;;5.30;32.50;;;;;;5050778;28;20477;-70
2022/01/29 10:12:44;;;;;;;46.87;12.97;;;5.30;32.20;;;;;;5050726;28;20852;-70
2022/01/29 10:15:11;;;;;;;48.50;14.17;;;5.40;31.80;;;;;;5050759;28;20458;-72
2022/01/29 10:17:40;;;;;;;47.00;12.17;;;5.50;31.50;;;;;;5049428;28;20458;-70
2022/01/29 10:20:13;;;;;;;45.27;11.30;;;5.50;31.00;;;;;;5050681;28;20482;-70
2022/01/29 10:22:40;;;;;;;47.77;11.60;;;5.60;31.20;;;;;;5050478;28;20451;-70
2022/01/29 10:25:12;;;;;;;47.40;11.00;;;5.60;30.90;;;;;;5050443;28;20541;-70
2022/01/29 10:27:39;;;;;;;44.77;11.03;;;5.70;31.10;;;;;;5050114;28;20553;-68
2022/01/29 10:30:09;;;;;;;44.60;11.80;;;5.70;30.50;;;;;;5050041;28;20485;-68
2022/01/29 10:32:36;;;;;;;44.27;11.73;;;5.80;30.00;;;;;;5049453;28;20470;-70
2022/01/29 10:35:04;;;;;;;43.60;10.63;;;5.90;30.30;;;;;;5050699;28;20473;-68
2022/01/29 10:37:32;;;;;;;43.60;11.17;;;6.20;29.40;;;;;;5049879;28;20628;-70
2022/01/29 10:40:01;;;;;;;48.33;10.80;;;6.90;28.20;;;;;;5050049;28;20994;-68
2022/01/29 10:42:31;;;;;;;43.03;10.60;;;7.40;26.00;;;;;;5049483;28;20605;-68
2022/01/29 10:45:02;;;;;;;45.17;11.53;;;7.60;24.70;;;;;;5050067;28;20461;-68
2022/01/29 10:47:29;;;;;;;42.07;9.47;;;7.60;24.00;;;;;;5050290;28;20580;-68
2022/01/29 10:49:59;;;;;;;43.17;9.57;;;7.80;23.60;;;;;;5050129;28;20480;-69
2022/01/29 10:52:29;;;;;;;43.63;11.47;;;8.30;22.50;;;;;;5048904;28;21013;-70
2022/01/29 10:55:03;;;;;;;42.77;9.27;;;8.30;21.10;;;;;;5049842;28;20458;-68
2022/01/29 10:57:34;;;;;;;42.20;10.37;;;8.10;21.80;;;;;;5050202;28;20458;-68
2022/01/29 11:00:04;;;;;;;43.00;9.40;;;8.00;21.50;;;;;;5049622;28;20477;-69
2022/01/29 11:02:31;;;;;;;42.60;11.07;;;7.90;21.70;;;;;;5048903;28;20474;-71
2022/01/29 11:05:00;;;;;;;45.40;10.87;;;8.00;22.10;;;;;;5050029;28;20476;-67
2022/01/29 11:07:29;;;;;;;46.43;10.00;;;8.10;21.90;;;;;;5049788;28;20539;-67
2022/01/29 11:09:57;;;;;;;41.40;9.63;;;8.30;21.50;;;;;;5048562;28;20569;-68
2022/01/29 11:12:27;;;;;;;41.57;8.70;;;8.50;20.50;;;;;;5049166;28;20470;-68
2022/01/29 11:14:55;;;;;;;40.73;8.07;;;8.70;19.90;;;;;;5049783;28;20457;-68
2022/01/29 11:17:24;;;;;;;39.33;8.33;;;8.80;18.90;;;;;;5049480;28;20499;-71
2022/01/29 11:19:51;;;;;;;40.87;9.13;;;8.60;19.30;;;;;;5049547;28;20482;-68
2022/01/29 11:22:22;;;;;;;39.07;8.33;;;8.40;19.40;;;;;;5049140;28;20454;-68
2022/01/29 11:24:54;;;;;;;39.97;8.47;;;8.30;19.90;;;;;;5049927;28;20840;-69
2022/01/29 11:27:23;;;;;;;40.10;9.23;;;8.30;20.20;;;;;;5049439;28;20458;-68
2022/01/29 11:29:59;;;;;;;38.47;7.87;;;8.80;21.00;;;;;;5049136;28;20504;-68
2022/01/29 11:32:32;;;;;;;38.70;8.10;;;10.60;18.40;;;;;;5048117;28;20478;-68
2022/01/29 11:35:21;;;;;;;35.87;6.70;;;11.80;14.30;;;;;;5049747;28;20485;-71
2022/01/29 11:37:57;;;;;;;37.13;7.30;;;12.30;13.30;;;;;;5049100;28;20460;-68
2022/01/29 11:40:33;;;;;;;39.80;7.30;;;12.50;12.80;;;;;;5049027;28;20535;-68
2022/01/29 11:43:10;;;;;;;37.80;7.73;;;12.40;12.40;;;;;;5049291;28;20453;-69
2022/01/29 11:45:56;;;;;;;37.93;7.40;;;12.10;12.50;;;;;;5049262;28;20461;-68
2022/01/29 11:48:53;;;;;;;40.00;7.50;;;12.00;13.20;;;;;;5048815;28;20457;-68
2022/01/29 11:51:42;;;;;;;37.90;7.77;;;11.80;12.80;;;;;;5048790;28;20461;-68
2022/01/29 11:54:10;;;;;;;40.93;8.07;;;11.30;12.90;;;;;;5049329;28;20462;-71
2022/01/29 11:56:39;;;;;;;41.87;12.40;;;11.10;14.00;;;;;;5049424;28;20457;-68
2022/01/29 11:59:25;;;;;;;36.53;7.50;;;11.10;14.60;;;;;;5048705;28;20503;-69
2022/01/29 12:01:55;;;;;;;36.77;6.53;;;11.10;14.60;;;;;;5048459;28;20488;-70
2022/01/29 12:04:23;;;;;;;38.93;8.80;;;11.30;14.70;;;;;;5048889;28;21022;-69
2022/01/29 12:07:12;;;;;;;37.00;6.90;;;11.60;14.30;;;;;;5049589;28;20462;-69
2022/01/29 12:09:47;;;;;;;35.83;5.67;;;11.60;13.70;;;;;;5048628;28;20982;-68
2022/01/29 12:12:17;;;;;;;37.30;7.43;;;11.50;12.90;;;;;;5048998;28;20547;-69
2022/01/29 12:14:44;;;;;;;36.50;7.07;;;11.40;12.90;;;;;;5048749;28;20674;-68
2022/01/29 12:17:32;;;;;;;36.07;6.60;;;11.20;12.60;;;;;;5049216;28;20458;-68
2022/01/29 12:20:01;;;;;;;37.57;7.60;;;11.10;13.00;;;;;;5048775;28;20492;-68
2022/01/29 12:22:28;;;;;;;35.13;5.60;;;10.90;13.40;;;;;;5051732;28;20484;-69
2022/01/29 12:24:58;;;;;;;36.27;5.70;;;10.90;14.40;;;;;;5052280;28;20462;-68
2022/01/29 12:27:43;;;;;;;36.47;5.30;;;10.90;14.00;;;;;;5052645;28;20461;-68
2022/01/29 12:30:11;;;;;;;37.27;6.70;;;10.80;13.60;;;;;;5051714;28;20496;-68
2022/01/29 12:32:40;;;;;;;34.97;6.10;;;10.70;14.10;;;;;;5051691;28;20485;-69
2022/01/29 12:35:07;;;;;;;35.27;5.70;;;10.70;13.70;;;;;;5051888;28;20842;-69
2022/01/29 12:37:34;;;;;;;35.70;5.13;;;10.60;14.10;;;;;;5051692;28;20466;-69
2022/01/29 12:40:09;;;;;;;36.97;6.40;;;10.50;14.10;;;;;;5051010;28;20485;-70
2022/01/29 12:42:43;;;;;;;35.70;5.63;;;10.40;13.90;;;;;;5051884;28;20507;-68
2022/01/29 12:45:11;;;;;;;35.97;5.97;;;10.30;14.70;;;;;;5052573;28;20443;-69
2022/01/29 12:47:39;;;;;;;34.73;5.47;;;10.30;15.50;;;;;;5052125;28;20464;-69
2022/01/29 12:50:07;;;;;;;33.70;5.33;;;10.20;14.70;;;;;;5051609;28;20484;-68
2022/01/29 12:52:33;;;;;;;35.47;5.93;;;10.10;14.90;;;;;;5051051;28;20481;-69
2022/01/29 12:55:04;;;;;;;34.33;4.50;;;10.00;15.30;;;;;;5051914;28;20458;-69
2022/01/29 12:57:42;;;;;;;39.07;6.13;;;10.00;14.70;;;;;;5052106;28;20458;-68